sensor_id;sensor_type;location;lat;lon;timestamp;P1;durP1;ratioP1;P2;durP2;ratioP2
19812;SDS011;10066;48.108;11.448;2024-01-10T00:01:05;43.70;;;21.20;;
19812;SDS011;10066;48.108;11.448;2024-01-10T00:03:32;35.53;;;18.70;;
19812;SDS011;10066;48.108;11.448;2024-01-10T00:06:00;38.93;;;20.70;;
19812;SDS011;10066;48.108;11.448;2024-01-10T00:08:28;38.97;;;20.43;;
19812;SDS011;10066;48.108;11.448;2024-01-10T00:11:03;41.73;;;20.93;;
19812;SDS011;10066;48.108;11.448;2024-01-10T00:13:31;39.40;;;20.30;;
19812;SDS011;10066;48.108;11.448;2024-01-10T00:15:59;41.90;;;20.70;;
19812;SDS011;10066;48.108;11.448;2024-01-10T00:18:26;39.03;;;20.60;;
19812;SDS011;10066;48.108;11.448;2024-01-10T00:20:56;42.13;;;20.73;;
19812;SDS011;10066;48.108;11.448;2024-01-10T00:23:24;36.70;;;20.60;;
19812;SDS011;10066;48.108;11.448;2024-01-10T00:25:51;40.07;;;20.47;;
19812;SDS011;10066;48.108;11.448;2024-01-10T00:28:21;40.13;;;20.47;;
19812;SDS011;10066;48.108;11.448;2024-01-10T00:30:48;37.57;;;20.03;;
19812;SDS011;10066;48.108;11.448;2024-01-10T00:33:15;43.67;;;20.57;;
19812;SDS011;10066;48.108;11.448;2024-01-10T00:35:43;40.83;;;20.40;;
19812;SDS011;10066;48.108;11.448;2024-01-10T00:38:10;39.13;;;19.63;;
19812;SDS011;10066;48.108;11.448;2024-01-10T00:40:39;42.33;;;20.23;;
19812;SDS011;10066;48.108;11.448;2024-01-10T00:43:07;39.93;;;20.87;;
19812;SDS011;10066;48.108;11.448;2024-01-10T00:45:36;45.50;;;21.80;;
19812;SDS011;10066;48.108;11.448;2024-01-10T00:48:03;42.97;;;20.73;;
19812;SDS011;10066;48.108;11.448;2024-01-10T00:50:32;40.57;;;19.47;;
19812;SDS011;10066;48.108;11.448;2024-01-10T00:53:00;38.57;;;18.57;;
19812;SDS011;10066;48.108;11.448;2024-01-10T00:55:27;40.63;;;20.20;;
19812;SDS011;10066;48.108;11.448;2024-01-10T00:57:54;37.57;;;18.73;;
19812;SDS011;10066;48.108;11.448;2024-01-10T01:00:21;42.27;;;20.37;;
19812;SDS011;10066;48.108;11.448;2024-01-10T01:02:50;39.63;;;19.30;;
19812;SDS011;10066;48.108;11.448;2024-01-10T01:05:17;38.47;;;20.70;;
19812;SDS011;10066;48.108;11.448;2024-01-10T01:07:44;37.63;;;18.67;;
19812;SDS011;10066;48.108;11.448;2024-01-10T01:10:11;36.37;;;18.30;;
19812;SDS011;10066;48.108;11.448;2024-01-10T01:12:39;37.10;;;18.43;;
19812;SDS011;10066;48.108;11.448;2024-01-10T01:15:06;36.43;;;19.10;;
19812;SDS011;10066;48.108;11.448;2024-01-10T01:17:34;37.90;;;18.23;;
19812;SDS011;10066;48.108;11.448;2024-01-10T01:20:02;38.43;;;18.53;;
19812;SDS011;10066;48.108;11.448;2024-01-10T01:22:30;37.60;;;17.53;;
19812;SDS011;10066;48.108;11.448;2024-01-10T01:24:57;40.70;;;18.27;;
19812;SDS011;10066;48.108;11.448;2024-01-10T01:27:24;36.07;;;16.90;;
19812;SDS011;10066;48.108;11.448;2024-01-10T01:29:52;34.17;;;17.87;;
19812;SDS011;10066;48.108;11.448;2024-01-10T01:32:19;33.63;;;17.57;;
19812;SDS011;10066;48.108;11.448;2024-01-10T01:34:46;38.13;;;18.23;;
19812;SDS011;10066;48.108;11.448;2024-01-10T01:37:14;36.53;;;18.23;;
19812;SDS011;10066;48.108;11.448;2024-01-10T01:39:41;37.93;;;17.20;;
19812;SDS011;10066;48.108;11.448;2024-01-10T01:42:08;36.20;;;17.20;;
19812;SDS011;10066;48.108;11.448;2024-01-10T01:44:36;36.53;;;17.67;;
19812;SDS011;10066;48.108;11.448;2024-01-10T01:47:03;34.97;;;16.47;;
19812;SDS011;10066;48.108;11.448;2024-01-10T01:49:30;35.63;;;17.27;;
19812;SDS011;10066;48.108;11.448;2024-01-10T01:51:57;36.83;;;17.70;;
19812;SDS011;10066;48.108;11.448;2024-01-10T01:54:27;36.60;;;17.70;;
19812;SDS011;10066;48.108;11.448;2024-01-10T01:56:54;37.33;;;17.47;;
19812;SDS011;10066;48.108;11.448;2024-01-10T01:59:22;38.07;;;17.90;;
19812;SDS011;10066;48.108;11.448;2024-01-10T02:01:50;33.23;;;17.13;;
19812;SDS011;10066;48.108;11.448;2024-01-10T02:04:19;36.13;;;17.87;;
19812;SDS011;10066;48.108;11.448;2024-01-10T02:06:45;36.83;;;17.97;;
19812;SDS011;10066;48.108;11.448;2024-01-10T02:09:12;36.40;;;18.40;;
19812;SDS011;10066;48.108;11.448;2024-01-10T02:11:41;33.73;;;17.40;;
19812;SDS011;10066;48.108;11.448;2024-01-10T02:14:09;33.87;;;18.47;;
19812;SDS011;10066;48.108;11.448;2024-01-10T02:16:37;35.20;;;17.67;;
19812;SDS011;10066;48.108;11.448;2024-01-10T02:19:17;37.93;;;18.20;;
19812;SDS011;10066;48.108;11.448;2024-01-10T02:21:45;36.87;;;18.00;;
19812;SDS011;10066;48.108;11.448;2024-01-10T02:24:12;39.63;;;18.70;;
19812;SDS011;10066;48.108;11.448;2024-01-10T02:26:41;37.47;;;17.93;;
19812;SDS011;10066;48.108;11.448;2024-01-10T02:29:08;36.53;;;18.60;;
19812;SDS011;10066;48.108;11.448;2024-01-10T02:31:35;35.20;;;17.70;;
19812;SDS011;10066;48.108;11.448;2024-01-10T02:34:02;34.77;;;18.27;;
19812;SDS011;10066;48.108;11.448;2024-01-10T02:36:30;37.37;;;18.40;;
19812;SDS011;10066;48.108;11.448;2024-01-10T02:38:57;35.40;;;18.40;;
19812;SDS011;10066;48.108;11.448;2024-01-10T02:41:24;39.83;;;19.47;;
19812;SDS011;10066;48.108;11.448;2024-01-10T02:43:54;35.03;;;17.63;;
19812;SDS011;10066;48.108;11.448;2024-01-10T02:46:24;40.97;;;19.07;;
19812;SDS011;10066;48.108;11.448;2024-01-10T02:48:53;36.83;;;18.23;;
19812;SDS011;10066;48.108;11.448;2024-01-10T02:51:21;38.90;;;18.77;;
19812;SDS011;10066;48.108;11.448;2024-01-10T02:53:48;39.50;;;18.50;;
19812;SDS011;10066;48.108;11.448;2024-01-10T02:56:15;42.57;;;18.50;;
19812;SDS011;10066;48.108;11.448;2024-01-10T02:58:42;38.23;;;18.57;;
19812;SDS011;10066;48.108;11.448;2024-01-10T03:01:14;36.33;;;17.73;;
19812;SDS011;10066;48.108;11.448;2024-01-10T03:03:41;38.80;;;17.93;;
19812;SDS011;10066;48.108;11.448;2024-01-10T03:06:08;35.50;;;18.03;;
19812;SDS011;10066;48.108;11.448;2024-01-10T03:08:35;33.83;;;17.97;;
19812;SDS011;10066;48.108;11.448;2024-01-10T03:11:05;38.63;;;18.33;;
19812;SDS011;10066;48.108;11.448;2024-01-10T03:13:32;40.07;;;18.77;;
19812;SDS011;10066;48.108;11.448;2024-01-10T03:15:59;37.63;;;18.80;;
19812;SDS011;10066;48.108;11.448;2024-01-10T03:18:27;37.23;;;17.93;;
19812;SDS011;10066;48.108;11.448;2024-01-10T03:20:54;35.37;;;17.23;;
19812;SDS011;10066;48.108;11.448;2024-01-10T03:23:22;32.47;;;16.53;;
19812;SDS011;10066;48.108;11.448;2024-01-10T03:25:49;37.80;;;17.87;;
19812;SDS011;10066;48.108;11.448;2024-01-10T03:28:16;37.20;;;19.33;;
19812;SDS011;10066;48.108;11.448;2024-01-10T03:30:44;37.93;;;18.60;;
19812;SDS011;10066;48.108;11.448;2024-01-10T03:33:11;38.13;;;17.60;;
19812;SDS011;10066;48.108;11.448;2024-01-10T03:35:39;42.50;;;17.97;;
19812;SDS011;10066;48.108;11.448;2024-01-10T03:38:06;35.67;;;17.67;;
19812;SDS011;10066;48.108;11.448;2024-01-10T03:40:34;38.53;;;18.20;;
19812;SDS011;10066;48.108;11.448;2024-01-10T03:43:01;37.27;;;17.23;;
19812;SDS011;10066;48.108;11.448;2024-01-10T03:45:28;38.70;;;18.27;;
19812;SDS011;10066;48.108;11.448;2024-01-10T03:47:55;36.30;;;18.27;;
19812;SDS011;10066;48.108;11.448;2024-01-10T03:50:22;41.83;;;20.37;;
19812;SDS011;10066;48.108;11.448;2024-01-10T03:52:52;38.13;;;18.67;;
19812;SDS011;10066;48.108;11.448;2024-01-10T03:55:19;35.17;;;17.23;;
19812;SDS011;10066;48.108;11.448;2024-01-10T03:57:46;40.40;;;17.40;;
19812;SDS011;10066;48.108;11.448;2024-01-10T04:00:13;39.17;;;18.43;;
19812;SDS011;10066;48.108;11.448;2024-01-10T04:02:41;33.43;;;16.67;;
19812;SDS011;10066;48.108;11.448;2024-01-10T04:05:08;34.67;;;17.17;;
19812;SDS011;10066;48.108;11.448;2024-01-10T04:07:39;33.60;;;16.67;;
19812;SDS011;10066;48.108;11.448;2024-01-10T04:10:10;39.17;;;19.73;;
19812;SDS011;10066;48.108;11.448;2024-01-10T04:12:39;38.87;;;19.30;;
19812;SDS011;10066;48.108;11.448;2024-01-10T04:15:06;41.17;;;19.57;;
19812;SDS011;10066;48.108;11.448;2024-01-10T04:17:34;41.93;;;18.43;;
19812;SDS011;10066;48.108;11.448;2024-01-10T04:20:01;35.50;;;17.37;;
19812;SDS011;10066;48.108;11.448;2024-01-10T04:22:29;37.87;;;18.43;;
19812;SDS011;10066;48.108;11.448;2024-01-10T04:24:56;36.07;;;17.67;;
19812;SDS011;10066;48.108;11.448;2024-01-10T04:27:26;39.37;;;18.23;;
19812;SDS011;10066;48.108;11.448;2024-01-10T04:29:53;40.27;;;18.37;;
19812;SDS011;10066;48.108;11.448;2024-01-10T04:32:20;39.23;;;18.10;;
19812;SDS011;10066;48.108;11.448;2024-01-10T04:34:48;37.43;;;18.00;;
19812;SDS011;10066;48.108;11.448;2024-01-10T04:37:15;37.60;;;17.37;;
19812;SDS011;10066;48.108;11.448;2024-01-10T04:39:42;37.20;;;18.03;;
19812;SDS011;10066;48.108;11.448;2024-01-10T04:42:09;38.97;;;18.70;;
19812;SDS011;10066;48.108;11.448;2024-01-10T04:44:38;38.30;;;17.43;;
19812;SDS011;10066;48.108;11.448;2024-01-10T04:47:06;41.53;;;17.03;;
19812;SDS011;10066;48.108;11.448;2024-01-10T04:49:34;39.37;;;18.03;;
19812;SDS011;10066;48.108;11.448;2024-01-10T04:52:01;34.20;;;16.93;;
19812;SDS011;10066;48.108;11.448;2024-01-10T04:54:28;35.77;;;16.80;;
19812;SDS011;10066;48.108;11.448;2024-01-10T04:56:55;32.30;;;15.57;;
19812;SDS011;10066;48.108;11.448;2024-01-10T04:59:22;35.83;;;16.63;;
19812;SDS011;10066;48.108;11.448;2024-01-10T05:01:51;33.00;;;16.67;;
19812;SDS011;10066;48.108;11.448;2024-01-10T05:04:18;33.70;;;16.03;;
19812;SDS011;10066;48.108;11.448;2024-01-10T05:06:45;31.13;;;15.90;;
19812;SDS011;10066;48.108;11.448;2024-01-10T05:09:12;33.57;;;15.83;;
19812;SDS011;10066;48.108;11.448;2024-01-10T05:11:39;36.83;;;17.53;;
19812;SDS011;10066;48.108;11.448;2024-01-10T05:14:07;31.37;;;16.07;;
19812;SDS011;10066;48.108;11.448;2024-01-10T05:16:34;37.73;;;16.50;;
19812;SDS011;10066;48.108;11.448;2024-01-10T05:19:02;36.37;;;17.53;;
19812;SDS011;10066;48.108;11.448;2024-01-10T05:21:32;37.77;;;16.63;;
19812;SDS011;10066;48.108;11.448;2024-01-10T05:23:59;37.87;;;17.43;;
19812;SDS011;10066;48.108;11.448;2024-01-10T05:26:26;35.20;;;16.20;;
19812;SDS011;10066;48.108;11.448;2024-01-10T05:28:54;42.23;;;19.17;;
19812;SDS011;10066;48.108;11.448;2024-01-10T05:31:21;40.80;;;18.10;;
19812;SDS011;10066;48.108;11.448;2024-01-10T05:33:48;38.83;;;17.87;;
19812;SDS011;10066;48.108;11.448;2024-01-10T05:36:17;41.03;;;17.80;;
19812;SDS011;10066;48.108;11.448;2024-01-10T05:38:44;40.43;;;18.30;;
19812;SDS011;10066;48.108;11.448;2024-01-10T05:41:11;43.57;;;19.83;;
19812;SDS011;10066;48.108;11.448;2024-01-10T05:43:39;42.47;;;18.63;;
19812;SDS011;10066;48.108;11.448;2024-01-10T05:46:06;43.30;;;18.73;;
19812;SDS011;10066;48.108;11.448;2024-01-10T05:48:35;41.77;;;19.30;;
19812;SDS011;10066;48.108;11.448;2024-01-10T05:51:02;37.93;;;17.37;;
19812;SDS011;10066;48.108;11.448;2024-01-10T05:53:31;46.73;;;18.00;;
19812;SDS011;10066;48.108;11.448;2024-01-10T05:55:58;43.13;;;19.83;;
19812;SDS011;10066;48.108;11.448;2024-01-10T05:58:25;37.43;;;17.30;;
19812;SDS011;10066;48.108;11.448;2024-01-10T06:00:52;37.33;;;17.93;;
19812;SDS011;10066;48.108;11.448;2024-01-10T06:03:20;40.80;;;18.90;;
19812;SDS011;10066;48.108;11.448;2024-01-10T06:05:47;38.63;;;18.47;;
19812;SDS011;10066;48.108;11.448;2024-01-10T06:08:14;40.73;;;17.87;;
19812;SDS011;10066;48.108;11.448;2024-01-10T06:10:43;40.93;;;16.67;;
19812;SDS011;10066;48.108;11.448;2024-01-10T06:13:10;40.73;;;17.87;;
19812;SDS011;10066;48.108;11.448;2024-01-10T06:15:37;41.87;;;18.63;;
19812;SDS011;10066;48.108;11.448;2024-01-10T06:18:04;38.53;;;16.97;;
19812;SDS011;10066;48.108;11.448;2024-01-10T06:20:31;37.77;;;17.40;;
19812;SDS011;10066;48.108;11.448;2024-01-10T06:23:00;41.13;;;18.10;;
19812;SDS011;10066;48.108;11.448;2024-01-10T06:25:27;35.33;;;16.90;;
19812;SDS011;10066;48.108;11.448;2024-01-10T06:27:56;37.13;;;17.43;;
19812;SDS011;10066;48.108;11.448;2024-01-10T06:30:23;38.37;;;16.80;;
19812;SDS011;10066;48.108;11.448;2024-01-10T06:32:50;38.77;;;17.17;;
19812;SDS011;10066;48.108;11.448;2024-01-10T06:35:17;39.13;;;17.83;;
19812;SDS011;10066;48.108;11.448;2024-01-10T06:37:45;39.87;;;17.77;;
19812;SDS011;10066;48.108;11.448;2024-01-10T06:40:12;41.73;;;17.37;;
19812;SDS011;10066;48.108;11.448;2024-01-10T06:42:39;41.47;;;18.97;;
19812;SDS011;10066;48.108;11.448;2024-01-10T06:45:08;45.77;;;20.03;;
19812;SDS011;10066;48.108;11.448;2024-01-10T06:47:37;38.00;;;17.80;;
19812;SDS011;10066;48.108;11.448;2024-01-10T06:50:04;38.60;;;17.83;;
19812;SDS011;10066;48.108;11.448;2024-01-10T06:52:34;41.57;;;18.53;;
19812;SDS011;10066;48.108;11.448;2024-01-10T06:55:01;42.40;;;18.70;;
19812;SDS011;10066;48.108;11.448;2024-01-10T06:57:29;39.07;;;17.03;;
19812;SDS011;10066;48.108;11.448;2024-01-10T06:59:56;42.53;;;18.93;;
19812;SDS011;10066;48.108;11.448;2024-01-10T07:02:25;44.87;;;17.60;;
19812;SDS011;10066;48.108;11.448;2024-01-10T07:04:52;42.07;;;17.57;;
19812;SDS011;10066;48.108;11.448;2024-01-10T07:07:19;38.13;;;16.93;;
19812;SDS011;10066;48.108;11.448;2024-01-10T07:09:46;40.33;;;18.10;;
19812;SDS011;10066;48.108;11.448;2024-01-10T07:12:13;40.67;;;17.60;;
19812;SDS011;10066;48.108;11.448;2024-01-10T07:14:40;41.17;;;17.57;;
19812;SDS011;10066;48.108;11.448;2024-01-10T07:17:07;42.27;;;18.43;;
19812;SDS011;10066;48.108;11.448;2024-01-10T07:19:35;42.30;;;18.07;;
19812;SDS011;10066;48.108;11.448;2024-01-10T07:22:02;40.37;;;16.87;;
19812;SDS011;10066;48.108;11.448;2024-01-10T07:24:30;37.73;;;16.57;;
19812;SDS011;10066;48.108;11.448;2024-01-10T07:26:57;38.83;;;16.80;;
19812;SDS011;10066;48.108;11.448;2024-01-10T07:29:24;39.13;;;18.03;;
19812;SDS011;10066;48.108;11.448;2024-01-10T07:31:52;40.43;;;18.33;;
19812;SDS011;10066;48.108;11.448;2024-01-10T07:34:19;38.63;;;17.13;;
19812;SDS011;10066;48.108;11.448;2024-01-10T07:36:48;41.40;;;17.93;;
19812;SDS011;10066;48.108;11.448;2024-01-10T07:39:15;44.13;;;17.83;;
19812;SDS011;10066;48.108;11.448;2024-01-10T07:41:43;38.93;;;17.83;;
19812;SDS011;10066;48.108;11.448;2024-01-10T07:44:10;44.67;;;19.27;;
19812;SDS011;10066;48.108;11.448;2024-01-10T07:46:38;43.97;;;18.27;;
19812;SDS011;10066;48.108;11.448;2024-01-10T07:49:05;50.70;;;19.30;;
19812;SDS011;10066;48.108;11.448;2024-01-10T07:51:33;41.73;;;19.87;;
19812;SDS011;10066;48.108;11.448;2024-01-10T07:54:02;44.13;;;19.50;;
19812;SDS011;10066;48.108;11.448;2024-01-10T07:56:29;43.13;;;19.67;;
19812;SDS011;10066;48.108;11.448;2024-01-10T07:58:56;45.50;;;18.23;;
19812;SDS011;10066;48.108;11.448;2024-01-10T08:01:25;47.53;;;19.97;;
19812;SDS011;10066;48.108;11.448;2024-01-10T08:03:52;43.87;;;19.77;;
19812;SDS011;10066;48.108;11.448;2024-01-10T08:06:19;54.70;;;20.87;;
19812;SDS011;10066;48.108;11.448;2024-01-10T08:08:48;54.87;;;20.47;;
19812;SDS011;10066;48.108;11.448;2024-01-10T08:11:16;45.17;;;20.57;;
19812;SDS011;10066;48.108;11.448;2024-01-10T08:13:43;43.20;;;18.07;;
19812;SDS011;10066;48.108;11.448;2024-01-10T08:16:13;46.10;;;20.57;;
19812;SDS011;10066;48.108;11.448;2024-01-10T08:18:40;47.50;;;20.47;;
19812;SDS011;10066;48.108;11.448;2024-01-10T08:21:10;52.53;;;21.90;;
19812;SDS011;10066;48.108;11.448;2024-01-10T08:23:38;49.63;;;20.13;;
19812;SDS011;10066;48.108;11.448;2024-01-10T08:26:06;53.27;;;21.80;;
19812;SDS011;10066;48.108;11.448;2024-01-10T08:28:35;51.13;;;22.03;;
19812;SDS011;10066;48.108;11.448;2024-01-10T08:31:03;52.57;;;23.23;;
19812;SDS011;10066;48.108;11.448;2024-01-10T08:33:33;46.30;;;19.87;;
19812;SDS011;10066;48.108;11.448;2024-01-10T08:36:00;54.17;;;22.30;;
19812;SDS011;10066;48.108;11.448;2024-01-10T08:38:29;47.63;;;21.53;;
19812;SDS011;10066;48.108;11.448;2024-01-10T08:40:56;49.87;;;20.40;;
19812;SDS011;10066;48.108;11.448;2024-01-10T08:43:23;50.37;;;21.57;;
19812;SDS011;10066;48.108;11.448;2024-01-10T08:45:52;54.53;;;23.33;;
19812;SDS011;10066;48.108;11.448;2024-01-10T08:48:19;56.03;;;22.60;;
19812;SDS011;10066;48.108;11.448;2024-01-10T08:50:46;58.60;;;23.90;;
19812;SDS011;10066;48.108;11.448;2024-01-10T08:53:13;53.43;;;23.33;;
19812;SDS011;10066;48.108;11.448;2024-01-10T08:55:41;51.77;;;22.30;;
19812;SDS011;10066;48.108;11.448;2024-01-10T08:58:08;59.07;;;25.30;;
19812;SDS011;10066;48.108;11.448;2024-01-10T09:00:35;55.33;;;24.03;;
19812;SDS011;10066;48.108;11.448;2024-01-10T09:03:05;52.57;;;21.77;;
19812;SDS011;10066;48.108;11.448;2024-01-10T09:05:32;56.07;;;24.90;;
19812;SDS011;10066;48.108;11.448;2024-01-10T09:07:59;56.40;;;24.00;;
19812;SDS011;10066;48.108;11.448;2024-01-10T09:10:26;53.57;;;23.60;;
19812;SDS011;10066;48.108;11.448;2024-01-10T09:12:53;54.57;;;23.80;;
19812;SDS011;10066;48.108;11.448;2024-01-10T09:15:20;40.50;;;16.97;;
19812;SDS011;10066;48.108;11.448;2024-01-10T09:17:48;54.53;;;24.33;;
19812;SDS011;10066;48.108;11.448;2024-01-10T09:20:16;60.47;;;25.10;;
19812;SDS011;10066;48.108;11.448;2024-01-10T09:22:44;63.63;;;24.63;;
19812;SDS011;10066;48.108;11.448;2024-01-10T09:25:11;56.33;;;23.37;;
19812;SDS011;10066;48.108;11.448;2024-01-10T09:27:39;65.63;;;26.80;;
19812;SDS011;10066;48.108;11.448;2024-01-10T09:30:07;62.03;;;24.63;;
19812;SDS011;10066;48.108;11.448;2024-01-10T09:32:34;64.07;;;25.40;;
19812;SDS011;10066;48.108;11.448;2024-01-10T09:35:02;56.97;;;25.03;;
19812;SDS011;10066;48.108;11.448;2024-01-10T09:37:31;56.43;;;24.97;;
19812;SDS011;10066;48.108;11.448;2024-01-10T09:39:58;59.57;;;25.57;;
19812;SDS011;10066;48.108;11.448;2024-01-10T09:42:26;56.43;;;25.10;;
19812;SDS011;10066;48.108;11.448;2024-01-10T09:44:56;58.63;;;25.57;;
19812;SDS011;10066;48.108;11.448;2024-01-10T09:47:23;52.27;;;24.13;;
19812;SDS011;10066;48.108;11.448;2024-01-10T09:49:51;50.43;;;23.50;;
19812;SDS011;10066;48.108;11.448;2024-01-10T09:52:22;52.10;;;23.77;;
19812;SDS011;10066;48.108;11.448;2024-01-10T09:54:53;48.30;;;22.77;;
19812;SDS011;10066;48.108;11.448;2024-01-10T09:57:21;48.07;;;22.80;;
19812;SDS011;10066;48.108;11.448;2024-01-10T09:59:50;46.80;;;23.10;;
19812;SDS011;10066;48.108;11.448;2024-01-10T10:02:17;53.80;;;23.50;;
19812;SDS011;10066;48.108;11.448;2024-01-10T10:04:48;49.70;;;23.20;;
19812;SDS011;10066;48.108;11.448;2024-01-10T10:07:20;50.57;;;22.60;;
19812;SDS011;10066;48.108;11.448;2024-01-10T10:09:47;50.43;;;24.03;;
19812;SDS011;10066;48.108;11.448;2024-01-10T10:12:16;52.87;;;24.03;;
19812;SDS011;10066;48.108;11.448;2024-01-10T10:14:43;48.77;;;21.33;;
19812;SDS011;10066;48.108;11.448;2024-01-10T10:17:13;45.80;;;21.37;;
19812;SDS011;10066;48.108;11.448;2024-01-10T10:19:41;44.73;;;21.57;;
19812;SDS011;10066;48.108;11.448;2024-01-10T10:22:09;47.30;;;23.27;;
19812;SDS011;10066;48.108;11.448;2024-01-10T10:24:37;46.87;;;22.73;;
19812;SDS011;10066;48.108;11.448;2024-01-10T10:27:07;47.43;;;22.50;;
19812;SDS011;10066;48.108;11.448;2024-01-10T10:29:37;45.77;;;22.13;;
19812;SDS011;10066;48.108;11.448;2024-01-10T10:32:05;46.37;;;21.90;;
19812;SDS011;10066;48.108;11.448;2024-01-10T10:34:33;48.00;;;22.80;;
19812;SDS011;10066;48.108;11.448;2024-01-10T10:37:00;43.07;;;20.40;;
19812;SDS011;10066;48.108;11.448;2024-01-10T10:39:28;45.70;;;22.30;;
19812;SDS011;10066;48.108;11.448;2024-01-10T10:41:55;43.33;;;20.10;;
19812;SDS011;10066;48.108;11.448;2024-01-10T10:44:24;43.97;;;22.73;;
19812;SDS011;10066;48.108;11.448;2024-01-10T10:46:56;46.13;;;23.13;;
19812;SDS011;10066;48.108;11.448;2024-01-10T10:49:31;45.83;;;22.43;;
19812;SDS011;10066;48.108;11.448;2024-01-10T10:51:59;44.97;;;23.13;;
19812;SDS011;10066;48.108;11.448;2024-01-10T10:54:28;39.40;;;20.23;;
19812;SDS011;10066;48.108;11.448;2024-01-10T10:56:57;44.63;;;20.97;;
19812;SDS011;10066;48.108;11.448;2024-01-10T10:59:28;42.47;;;21.83;;
19812;SDS011;10066;48.108;11.448;2024-01-10T11:01:59;44.67;;;22.73;;
19812;SDS011;10066;48.108;11.448;2024-01-10T11:04:26;46.87;;;22.80;;
19812;SDS011;10066;48.108;11.448;2024-01-10T11:06:54;42.67;;;21.13;;
19812;SDS011;10066;48.108;11.448;2024-01-10T11:09:21;41.13;;;20.77;;
19812;SDS011;10066;48.108;11.448;2024-01-10T11:12:06;45.83;;;22.50;;
19812;SDS011;10066;48.108;11.448;2024-01-10T11:14:49;47.20;;;22.27;;
19812;SDS011;10066;48.108;11.448;2024-01-10T11:17:40;46.20;;;20.73;;
19812;SDS011;10066;48.108;11.448;2024-01-10T11:20:21;47.93;;;22.67;;
19812;SDS011;10066;48.108;11.448;2024-01-10T11:23:09;45.33;;;22.47;;
19812;SDS011;10066;48.108;11.448;2024-01-10T11:25:49;48.67;;;22.33;;
19812;SDS011;10066;48.108;11.448;2024-01-10T11:28:17;47.67;;;23.57;;
19812;SDS011;10066;48.108;11.448;2024-01-10T11:30:48;52.07;;;24.27;;
19812;SDS011;10066;48.108;11.448;2024-01-10T11:33:21;45.57;;;22.97;;
19812;SDS011;10066;48.108;11.448;2024-01-10T11:36:05;42.23;;;22.07;;
19812;SDS011;10066;48.108;11.448;2024-01-10T11:38:48;52.93;;;23.77;;
19812;SDS011;10066;48.108;11.448;2024-01-10T11:41:20;50.57;;;24.73;;
19812;SDS011;10066;48.108;11.448;2024-01-10T11:46:55;55.40;;;25.13;;
19812;SDS011;10066;48.108;11.448;2024-01-10T11:49:24;49.97;;;24.30;;
19812;SDS011;10066;48.108;11.448;2024-01-10T11:51:53;51.00;;;24.53;;
19812;SDS011;10066;48.108;11.448;2024-01-10T11:54:38;47.13;;;23.47;;
19812;SDS011;10066;48.108;11.448;2024-01-10T11:57:13;50.57;;;24.07;;
19812;SDS011;10066;48.108;11.448;2024-01-10T11:59:42;58.00;;;24.33;;
19812;SDS011;10066;48.108;11.448;2024-01-10T12:02:10;41.27;;;21.27;;
19812;SDS011;10066;48.108;11.448;2024-01-10T12:04:39;32.40;;;12.87;;
19812;SDS011;10066;48.108;11.448;2024-01-10T12:07:06;61.80;;;27.73;;
19812;SDS011;10066;48.108;11.448;2024-01-10T12:09:34;64.93;;;29.10;;
19812;SDS011;10066;48.108;11.448;2024-01-10T12:12:01;56.30;;;23.93;;
19812;SDS011;10066;48.108;11.448;2024-01-10T12:14:29;65.23;;;27.80;;
19812;SDS011;10066;48.108;11.448;2024-01-10T12:16:56;71.17;;;29.13;;
19812;SDS011;10066;48.108;11.448;2024-01-10T12:19:23;67.40;;;27.57;;
19812;SDS011;10066;48.108;11.448;2024-01-10T12:21:52;65.40;;;29.37;;
19812;SDS011;10066;48.108;11.448;2024-01-10T12:24:20;53.10;;;21.53;;
19812;SDS011;10066;48.108;11.448;2024-01-10T12:26:47;64.97;;;28.37;;
19812;SDS011;10066;48.108;11.448;2024-01-10T12:29:17;65.00;;;28.57;;
19812;SDS011;10066;48.108;11.448;2024-01-10T12:31:47;66.10;;;28.87;;
19812;SDS011;10066;48.108;11.448;2024-01-10T12:34:14;57.90;;;24.77;;
19812;SDS011;10066;48.108;11.448;2024-01-10T12:36:41;60.90;;;27.33;;
19812;SDS011;10066;48.108;11.448;2024-01-10T12:39:10;57.77;;;26.17;;
19812;SDS011;10066;48.108;11.448;2024-01-10T12:41:38;62.57;;;27.37;;
19812;SDS011;10066;48.108;11.448;2024-01-10T12:44:07;63.30;;;26.77;;
19812;SDS011;10066;48.108;11.448;2024-01-10T12:46:34;57.43;;;25.93;;
19812;SDS011;10066;48.108;11.448;2024-01-10T12:49:02;55.30;;;25.87;;
19812;SDS011;10066;48.108;11.448;2024-01-10T12:51:32;51.23;;;22.30;;
19812;SDS011;10066;48.108;11.448;2024-01-10T12:54:01;60.60;;;27.97;;
19812;SDS011;10066;48.108;11.448;2024-01-10T12:56:31;77.90;;;30.97;;
19812;SDS011;10066;48.108;11.448;2024-01-10T12:58:58;62.40;;;26.40;;
19812;SDS011;10066;48.108;11.448;2024-01-10T13:01:25;68.53;;;28.97;;
19812;SDS011;10066;48.108;11.448;2024-01-10T13:03:52;67.60;;;29.13;;
19812;SDS011;10066;48.108;11.448;2024-01-10T13:06:20;60.93;;;26.60;;
19812;SDS011;10066;48.108;11.448;2024-01-10T13:08:47;56.63;;;25.10;;
19812;SDS011;10066;48.108;11.448;2024-01-10T13:11:15;61.87;;;26.03;;
19812;SDS011;10066;48.108;11.448;2024-01-10T13:13:43;73.00;;;28.60;;
19812;SDS011;10066;48.108;11.448;2024-01-10T13:16:10;73.93;;;28.23;;
19812;SDS011;10066;48.108;11.448;2024-01-10T13:18:37;68.63;;;29.33;;
19812;SDS011;10066;48.108;11.448;2024-01-10T13:21:05;40.70;;;15.80;;
19812;SDS011;10066;48.108;11.448;2024-01-10T13:23:32;69.50;;;27.97;;
19812;SDS011;10066;48.108;11.448;2024-01-10T13:26:03;52.10;;;22.90;;
19812;SDS011;10066;48.108;11.448;2024-01-10T13:28:30;76.53;;;30.13;;
19812;SDS011;10066;48.108;11.448;2024-01-10T13:30:58;66.07;;;27.30;;
19812;SDS011;10066;48.108;11.448;2024-01-10T13:33:26;71.17;;;27.77;;
19812;SDS011;10066;48.108;11.448;2024-01-10T13:35:53;64.90;;;26.93;;
19812;SDS011;10066;48.108;11.448;2024-01-10T13:38:20;67.30;;;28.33;;
19812;SDS011;10066;48.108;11.448;2024-01-10T13:40:49;73.10;;;29.50;;
19812;SDS011;10066;48.108;11.448;2024-01-10T13:43:16;73.33;;;29.47;;
19812;SDS011;10066;48.108;11.448;2024-01-10T13:45:45;51.37;;;21.53;;
19812;SDS011;10066;48.108;11.448;2024-01-10T13:48:14;76.67;;;28.77;;
19812;SDS011;10066;48.108;11.448;2024-01-10T13:50:42;80.53;;;31.00;;
19812;SDS011;10066;48.108;11.448;2024-01-10T13:53:10;69.67;;;27.93;;
19812;SDS011;10066;48.108;11.448;2024-01-10T13:55:38;86.17;;;31.67;;
19812;SDS011;10066;48.108;11.448;2024-01-10T13:58:06;72.33;;;25.97;;
19812;SDS011;10066;48.108;11.448;2024-01-10T14:00:35;73.10;;;28.90;;
19812;SDS011;10066;48.108;11.448;2024-01-10T14:03:03;63.87;;;27.20;;
19812;SDS011;10066;48.108;11.448;2024-01-10T14:05:31;68.30;;;26.97;;
19812;SDS011;10066;48.108;11.448;2024-01-10T14:07:58;68.20;;;28.73;;
19812;SDS011;10066;48.108;11.448;2024-01-10T14:10:26;67.00;;;25.00;;
19812;SDS011;10066;48.108;11.448;2024-01-10T14:12:53;74.27;;;29.23;;
19812;SDS011;10066;48.108;11.448;2024-01-10T14:15:20;64.60;;;27.30;;
19812;SDS011;10066;48.108;11.448;2024-01-10T14:17:47;60.03;;;23.57;;